createdAt,value
2018-08-07T00:00:18.055Z,57.21
2018-08-07T00:01:18.091Z,56.73
2018-08-07T00:02:18.153Z,58.64
2018-08-07T00:03:18.145Z,57.57
2018-08-07T00:04:18.170Z,58.06
2018-08-07T00:05:18.213Z,58.25
2018-08-07T00:06:18.227Z,58.64
2018-08-07T00:07:18.263Z,59.22
2018-08-07T00:08:18.294Z,59.41
2018-08-07T00:09:18.322Z,58.64
2018-08-07T00:10:18.352Z,58.06
2018-08-07T00:11:18.390Z,57.96
2018-08-07T00:12:18.421Z,57.48
2018-08-07T00:13:18.450Z,58.15
2018-08-07T00:14:18.482Z,59.41
2018-08-07T00:15:18.507Z,59.31
2018-08-07T00:16:18.533Z,58.83
2018-08-07T00:17:18.560Z,58.73
2018-08-07T00:18:18.601Z,59.31
2018-08-07T00:19:18.624Z,59.60
2018-08-07T00:20:18.649Z,59.22
2018-08-07T00:21:18.680Z,59.12
2018-08-07T00:22:18.710Z,59.51
2018-08-07T00:23:18.744Z,58.54
2018-08-07T00:24:18.772Z,60.38
2018-08-07T00:25:18.807Z,59.70
2018-08-07T00:26:18.831Z,58.93
2018-08-07T00:27:18.869Z,59.41
2018-08-07T00:28:18.888Z,58.83
2018-08-07T00:29:18.925Z,59.70
2018-08-07T00:30:18.950Z,59.22
2018-08-07T00:31:18.976Z,59.19
2018-08-07T00:32:19.012Z,59.70
2018-08-07T00:33:19.054Z,58.22
2018-08-07T00:34:19.064Z,59.19
2018-08-07T00:35:19.102Z,60.35
2018-08-07T00:36:19.128Z,59.09
2018-08-07T00:37:19.162Z,58.51
2018-08-07T00:38:19.840Z,59.31
2018-08-07T00:39:19.229Z,59.09
2018-08-07T00:40:19.837Z,58.90
2018-08-07T00:41:19.279Z,59.09
2018-08-07T00:42:19.310Z,60.16
2018-08-07T00:43:19.340Z,59.77
2018-08-07T00:44:19.364Z,59.58
2018-08-07T00:45:19.400Z,59.00
2018-08-07T00:46:19.424Z,60.25
2018-08-07T00:47:19.457Z,60.35
2018-08-07T00:48:19.487Z,60.35
2018-08-07T00:49:19.522Z,59.67
2018-08-07T00:50:19.549Z,59.19
2018-08-07T00:51:19.586Z,60.25
2018-08-07T00:52:19.605Z,60.16
2018-08-07T00:53:19.639Z,60.44
2018-08-07T00:54:19.667Z,60.16
2018-08-07T00:55:19.696Z,60.16
2018-08-07T00:56:19.726Z,60.25
2018-08-07T00:57:19.758Z,60.35
2018-08-07T00:58:19.781Z,60.25
2018-08-07T00:59:19.813Z,60.25
2018-08-07T01:00:19.846Z,60.25
2018-08-07T01:01:19.870Z,60.35
2018-08-07T01:02:19.907Z,59.67
2018-08-07T01:03:19.953Z,59.77
2018-08-07T01:04:19.976Z,60.35
2018-08-07T01:05:19.998Z,60.16
2018-08-07T01:06:20.031Z,60.25
2018-08-07T01:07:20.060Z,61.22
2018-08-07T01:08:20.090Z,60.83
2018-08-07T01:09:20.109Z,60.16
2018-08-07T01:10:20.154Z,60.25
2018-08-07T01:11:20.179Z,60.25
2018-08-07T01:12:20.198Z,61.22
2018-08-07T01:13:20.237Z,60.16
2018-08-07T01:14:20.269Z,61.12
2018-08-07T01:15:20.301Z,61.22
2018-08-07T01:16:20.318Z,60.16
2018-08-07T01:17:20.355Z,61.02
2018-08-07T01:18:20.382Z,60.54
2018-08-07T01:19:20.417Z,60.83
2018-08-07T01:20:20.454Z,61.31
2018-08-07T01:21:20.471Z,60.25
2018-08-07T01:22:20.508Z,60.16
2018-08-07T01:23:20.535Z,60.54
2018-08-07T01:24:20.565Z,60.54
2018-08-07T01:25:20.590Z,60.25
2018-08-07T01:26:20.634Z,59.38
2018-08-07T01:27:20.647Z,60.44
2018-08-07T01:28:20.678Z,59.58
2018-08-07T01:29:20.715Z,60.16
2018-08-07T01:30:20.737Z,60.16
2018-08-07T01:31:20.772Z,59.58
2018-08-07T01:32:20.794Z,60.16
2018-08-07T01:33:20.827Z,59.96
2018-08-07T01:34:20.863Z,59.19
2018-08-07T01:35:20.897Z,59.55
2018-08-07T01:36:20.918Z,61.09
2018-08-07T01:37:20.947Z,60.51
2018-08-07T01:38:20.977Z,60.89
2018-08-07T01:39:21.006Z,60.16
2018-08-07T01:40:21.037Z,60.80
2018-08-07T01:41:21.064Z,59.35
2018-08-07T01:42:21.097Z,60.51
2018-08-07T01:43:21.126Z,60.61
2018-08-07T01:44:21.177Z,60.51
2018-08-07T01:45:21.179Z,60.22
2018-08-07T01:46:21.213Z,60.99
2018-08-07T01:47:21.250Z,60.93
2018-08-07T01:48:21.271Z,60.41
2018-08-07T01:49:21.307Z,61.09
2018-08-07T01:50:21.338Z,60.80
2018-08-07T01:51:21.370Z,61.19
2018-08-07T01:52:21.393Z,60.03
2018-08-07T01:53:21.450Z,60.41
2018-08-07T01:54:21.479Z,61.19
2018-08-07T01:55:21.480Z,60.41
2018-08-07T01:56:21.515Z,60.51
2018-08-07T01:57:21.541Z,60.99
2018-08-07T01:58:21.575Z,60.80
2018-08-07T01:59:21.602Z,60.99
2018-08-07T02:00:21.696Z,61.19
2018-08-07T02:01:21.655Z,60.80
2018-08-07T02:02:21.708Z,60.51
2018-08-07T02:03:21.720Z,61.77
2018-08-07T02:04:21.750Z,61.38
2018-08-07T02:05:21.778Z,61.28
2018-08-07T02:06:21.811Z,61.28
2018-08-07T02:07:21.841Z,61.47
2018-08-07T02:08:21.874Z,60.89
2018-08-07T02:09:21.913Z,61.28
2018-08-07T02:10:21.926Z,60.71
2018-08-07T02:11:21.964Z,60.31
2018-08-07T02:12:21.988Z,61.47
2018-08-07T02:13:22.022Z,60.89
2018-08-07T02:14:22.058Z,60.41
2018-08-07T02:15:22.088Z,60.13
2018-08-07T02:16:22.120Z,60.61
2018-08-07T02:17:22.134Z,59.93
2018-08-07T02:18:22.163Z,59.25
2018-08-07T02:19:22.189Z,60.19
2018-08-07T02:20:22.222Z,59.71
2018-08-07T02:21:22.251Z,60.28
2018-08-07T02:22:22.293Z,60.10
2018-08-07T02:23:22.311Z,60.10
2018-08-07T02:24:22.340Z,60.38
2018-08-07T02:25:22.374Z,60.38
2018-08-07T02:26:22.411Z,60.28
2018-08-07T02:27:22.443Z,60.38
2018-08-07T02:28:22.470Z,59.61
2018-08-07T02:29:22.513Z,60.10
2018-08-07T02:30:22.521Z,59.61
2018-08-07T02:31:22.557Z,60.48
2018-08-07T02:32:22.577Z,60.96
2018-08-07T02:33:22.610Z,60.19
2018-08-07T02:34:22.639Z,60.58
2018-08-07T02:35:22.667Z,60.38
2018-08-07T02:36:22.699Z,60.58
2018-08-07T02:37:22.737Z,60.77
2018-08-07T02:38:22.773Z,60.86
2018-08-07T02:39:22.789Z,60.19
2018-08-07T02:40:22.813Z,61.16
2018-08-07T02:41:22.841Z,60.68
2018-08-07T02:42:22.875Z,60.96
2018-08-07T02:43:22.904Z,60.38
2018-08-07T02:44:22.955Z,61.06
2018-08-07T02:45:22.967Z,60.00
2018-08-07T02:46:23.003Z,60.58
2018-08-07T02:47:23.025Z,60.00
2018-08-07T02:48:23.066Z,59.80
2018-08-07T02:49:23.119Z,59.78
2018-08-07T02:50:23.109Z,60.16
2018-08-07T02:51:23.163Z,60.38
2018-08-07T02:52:23.165Z,60.19
2018-08-07T02:53:23.201Z,60.96
2018-08-07T02:54:23.234Z,60.26
2018-08-07T02:55:23.259Z,60.55
2018-08-07T02:56:23.294Z,60.06
2018-08-07T02:57:23.316Z,59.97
2018-08-07T02:58:23.417Z,60.16
2018-08-07T02:59:23.403Z,59.58
2018-08-07T03:00:23.413Z,60.16
2018-08-07T03:01:23.452Z,60.35
2018-08-07T03:02:23.469Z,60.74
2018-08-07T03:03:23.514Z,60.55
2018-08-07T03:04:23.523Z,60.26
2018-08-07T03:05:23.592Z,61.03
2018-08-07T03:06:23.581Z,61.32
2018-08-07T03:07:23.616Z,60.35
2018-08-07T03:08:23.640Z,60.93
2018-08-07T03:09:23.783Z,61.13
2018-08-07T03:10:23.704Z,61.32
2018-08-07T03:11:23.783Z,61.22
2018-08-07T03:12:23.758Z,61.22
2018-08-07T03:13:23.800Z,61.61
2018-08-07T03:14:23.823Z,61.80
2018-08-07T03:15:23.848Z,62.18
2018-08-07T03:16:23.872Z,61.03
2018-08-07T03:17:23.904Z,61.03
2018-08-07T03:18:23.934Z,61.51
2018-08-07T03:19:23.964Z,60.83
2018-08-07T03:20:24.010Z,61.51
2018-08-07T03:21:24.020Z,60.83
2018-08-07T03:22:24.050Z,60.83
2018-08-07T03:23:24.080Z,60.93
2018-08-07T03:24:24.116Z,61.22
2018-08-07T03:25:24.144Z,61.90
2018-08-07T03:26:24.172Z,60.83
2018-08-07T03:27:24.198Z,60.64
2018-08-07T03:28:24.243Z,61.03
2018-08-07T03:29:24.258Z,60.83
2018-08-07T03:30:24.284Z,60.64
2018-08-07T03:31:24.318Z,61.03
2018-08-07T03:32:24.368Z,60.83
2018-08-07T03:33:24.375Z,61.99
2018-08-07T03:34:24.411Z,61.13
2018-08-07T03:35:24.432Z,61.13
2018-08-07T03:36:24.483Z,61.03
2018-08-07T03:37:24.494Z,61.80
2018-08-07T03:38:24.549Z,61.61
2018-08-07T03:39:24.566Z,61.22
2018-08-07T03:40:24.584Z,61.22
2018-08-07T03:41:24.632Z,61.61
2018-08-07T03:42:24.640Z,62.09
2018-08-07T03:43:24.668Z,61.13
2018-08-07T03:44:24.697Z,61.22
2018-08-07T03:45:24.725Z,61.41
2018-08-07T03:46:24.763Z,60.93
2018-08-07T03:47:24.792Z,61.13
2018-08-07T03:48:24.813Z,61.71
2018-08-07T03:49:24.889Z,61.03
2018-08-07T03:50:24.886Z,61.13
2018-08-07T03:51:24.902Z,62.76
2018-08-07T03:52:24.931Z,61.22
2018-08-07T03:53:24.959Z,61.80
2018-08-07T03:54:25.004Z,61.03
2018-08-07T03:55:25.028Z,62.66
2018-08-07T03:56:25.052Z,61.41
2018-08-07T03:57:25.085Z,62.66
2018-08-07T03:58:25.110Z,62.66
2018-08-07T03:59:25.142Z,61.51
2018-08-07T04:00:25.173Z,61.51
2018-08-07T04:01:25.194Z,62.18
2018-08-07T04:02:25.260Z,62.57
2018-08-07T04:03:25.256Z,62.38
2018-08-07T04:04:25.291Z,62.28
2018-08-07T04:05:25.313Z,62.38
2018-08-07T04:06:25.338Z,62.38
2018-08-07T04:07:25.375Z,63.06
2018-08-07T04:08:25.414Z,62.38
2018-08-07T04:09:25.590Z,61.51
2018-08-07T04:10:25.467Z,61.13
2018-08-07T04:11:25.575Z,60.83
2018-08-07T04:12:25.520Z,62.09
2018-08-07T04:13:25.560Z,61.90
2018-08-07T04:14:25.586Z,61.32
2018-08-07T04:15:25.605Z,61.61
2018-08-07T04:16:25.633Z,62.66
2018-08-07T04:17:25.678Z,62.38
2018-08-07T04:18:25.706Z,61.99
2018-08-07T04:19:25.744Z,62.57
2018-08-07T04:20:25.764Z,63.06
2018-08-07T04:21:25.787Z,62.18
2018-08-07T04:22:25.824Z,61.61
2018-08-07T04:23:25.843Z,61.61
2018-08-07T04:24:25.878Z,61.61
2018-08-07T04:25:25.904Z,62.66
2018-08-07T04:26:25.931Z,62.12
2018-08-07T04:27:25.970Z,60.86
2018-08-07T04:28:25.993Z,61.06
2018-08-07T04:29:26.040Z,61.74
2018-08-07T04:30:26.052Z,61.64
2018-08-07T04:31:26.093Z,61.25
2018-08-07T04:32:26.115Z,61.06
2018-08-07T04:33:26.134Z,61.16
2018-08-07T04:34:26.181Z,61.06
2018-08-07T04:35:26.195Z,60.86
2018-08-07T04:36:26.232Z,61.06
2018-08-07T04:37:26.258Z,61.25
2018-08-07T04:38:26.286Z,61.06
2018-08-07T04:39:26.310Z,60.96
2018-08-07T04:40:26.353Z,60.77
2018-08-07T04:41:26.368Z,62.05
2018-08-07T04:42:26.399Z,61.16
2018-08-07T04:43:26.442Z,61.06
2018-08-07T04:44:26.468Z,61.54
2018-08-07T04:45:26.488Z,61.93
2018-08-07T04:46:26.524Z,61.25
2018-08-07T04:47:26.570Z,61.19
2018-08-07T04:48:26.579Z,60.89
2018-08-07T04:49:26.617Z,61.09
2018-08-07T04:50:26.636Z,60.41
2018-08-07T04:51:26.667Z,60.31
2018-08-07T04:52:26.704Z,60.31
2018-08-07T04:53:26.727Z,60.89
2018-08-07T04:54:26.757Z,60.99
2018-08-07T04:55:26.792Z,60.99
2018-08-07T04:56:26.812Z,60.71
2018-08-07T04:57:26.848Z,61.09
2018-08-07T04:58:26.875Z,61.96
2018-08-07T04:59:26.899Z,61.09
2018-08-07T05:00:26.932Z,60.51
2018-08-07T05:01:26.963Z,60.68
2018-08-07T05:02:26.986Z,60.96
2018-08-07T05:03:27.030Z,60.96
2018-08-07T05:04:27.057Z,60.86
2018-08-07T05:05:27.078Z,60.77
2018-08-07T05:06:27.112Z,60.00
2018-08-07T05:07:27.136Z,60.86
2018-08-07T05:08:27.166Z,60.96
2018-08-07T05:09:27.206Z,61.35
2018-08-07T05:10:27.302Z,60.86
2018-08-07T05:11:27.323Z,60.96
2018-08-07T05:12:27.289Z,61.74
2018-08-07T05:13:27.314Z,62.31
2018-08-07T05:14:27.345Z,61.44
2018-08-07T05:15:27.394Z,61.64
2018-08-07T05:16:27.415Z,61.64
2018-08-07T05:17:27.439Z,61.54
2018-08-07T05:18:27.471Z,62.31
2018-08-07T05:19:27.507Z,60.96
2018-08-07T05:20:27.527Z,61.16
2018-08-07T05:21:27.547Z,61.25
2018-08-07T05:22:27.589Z,61.54
2018-08-07T05:23:27.624Z,61.25
2018-08-07T05:24:27.637Z,61.83
2018-08-07T05:25:27.667Z,61.44
2018-08-07T05:26:27.700Z,61.06
2018-08-07T05:27:27.724Z,61.83
2018-08-07T05:28:27.764Z,60.89
2018-08-07T05:29:27.785Z,61.09
2018-08-07T05:30:27.814Z,61.09
2018-08-07T05:31:28.434Z,61.09
2018-08-07T05:32:27.873Z,60.89
2018-08-07T05:33:27.912Z,61.47
2018-08-07T05:34:27.941Z,60.89
2018-08-07T05:35:27.961Z,62.25
2018-08-07T05:36:28.001Z,61.47
2018-08-07T05:37:28.021Z,61.09
2018-08-07T05:38:28.049Z,61.19
2018-08-07T05:39:28.083Z,60.89
2018-08-07T05:40:28.112Z,61.77
2018-08-07T05:41:28.150Z,60.99
2018-08-07T05:42:28.261Z,61.47
2018-08-07T05:43:28.203Z,60.99
2018-08-07T05:44:28.226Z,61.96
2018-08-07T05:45:28.274Z,61.57
2018-08-07T05:46:28.309Z,62.25
2018-08-07T05:47:28.318Z,61.57
2018-08-07T05:48:28.347Z,61.28
2018-08-07T05:49:28.388Z,62.15
2018-08-07T05:50:28.551Z,60.71
2018-08-07T05:51:28.460Z,61.09
2018-08-07T05:52:28.459Z,61.09
2018-08-07T05:53:28.497Z,60.89
2018-08-07T05:54:28.526Z,61.12
2018-08-07T05:55:28.554Z,61.96
2018-08-07T05:56:28.594Z,62.25
2018-08-07T05:57:28.630Z,62.73
2018-08-07T05:58:28.637Z,61.86
2018-08-07T05:59:28.669Z,62.15
2018-08-07T06:00:28.696Z,61.96
2018-08-07T06:01:28.767Z,61.67
2018-08-07T06:02:28.757Z,62.08
2018-08-07T06:03:28.792Z,61.31
2018-08-07T06:04:28.823Z,61.31
2018-08-07T06:05:28.855Z,61.12
2018-08-07T06:06:28.876Z,61.12
2018-08-07T06:07:28.902Z,60.93
2018-08-07T06:08:28.943Z,61.12
2018-08-07T06:09:28.989Z,60.73
2018-08-07T06:10:28.989Z,60.93
2018-08-07T06:11:29.036Z,60.35
2018-08-07T06:12:29.065Z,60.93
2018-08-07T06:13:29.165Z,61.25
2018-08-07T06:14:29.114Z,60.96
2018-08-07T06:15:29.162Z,60.96
2018-08-07T06:16:29.168Z,60.28
2018-08-07T06:17:29.209Z,60.25
2018-08-07T06:18:29.231Z,60.44
2018-08-07T06:19:29.257Z,60.83
2018-08-07T06:20:29.293Z,60.25
2018-08-07T06:21:29.334Z,60.06
2018-08-07T06:22:29.364Z,60.18
2018-08-07T06:23:29.379Z,60.09
2018-08-07T06:24:29.424Z,59.96
2018-08-07T06:25:29.446Z,60.18
2018-08-07T06:26:29.483Z,60.38
2018-08-07T06:27:29.506Z,60.38
2018-08-07T06:28:29.560Z,60.38
2018-08-07T06:29:29.560Z,60.09
2018-08-07T06:30:29.582Z,60.38
2018-08-07T06:31:30.519Z,59.99
2018-08-07T06:32:29.640Z,59.22
2018-08-07T06:33:29.690Z,60.28
2018-08-07T06:34:29.714Z,60.38
2018-08-07T06:35:29.738Z,59.22
2018-08-07T06:36:29.773Z,59.12
2018-08-07T06:37:29.788Z,60.38
2018-08-07T06:38:29.824Z,59.22
2018-08-07T06:39:29.848Z,59.51
2018-08-07T06:40:29.873Z,59.12
2018-08-07T06:41:29.912Z,59.02
2018-08-07T06:42:29.970Z,59.12
2018-08-07T06:43:29.966Z,58.06
2018-08-07T06:44:29.999Z,58.35
2018-08-07T06:45:30.021Z,58.57
2018-08-07T06:46:30.053Z,58.45
2018-08-07T06:47:30.115Z,58.57
2018-08-07T06:48:30.117Z,58.28
2018-08-07T06:49:30.144Z,58.57
2018-08-07T06:50:30.188Z,57.99
2018-08-07T06:51:30.214Z,58.28
2018-08-07T06:52:30.233Z,58.18
2018-08-07T06:53:30.279Z,58.31
2018-08-07T06:54:30.291Z,58.60
2018-08-07T06:55:30.319Z,57.89
2018-08-07T06:56:30.364Z,58.12
2018-08-07T06:57:30.386Z,56.18
2018-08-07T06:58:30.425Z,57.05
2018-08-07T06:59:30.445Z,57.05
2018-08-07T07:00:30.474Z,56.76
2018-08-07T07:01:30.508Z,57.54
2018-08-07T07:02:30.531Z,55.89
2018-08-07T07:03:30.561Z,56.67
2018-08-07T07:04:30.606Z,56.09
2018-08-07T07:05:30.618Z,56.28
2018-08-07T07:06:30.643Z,56.09
2018-08-07T07:07:30.684Z,55.99
2018-08-07T07:08:30.711Z,55.82
2018-08-07T07:09:30.805Z,55.43
2018-08-07T07:10:30.766Z,55.24
2018-08-07T07:11:30.803Z,55.66
2018-08-07T07:12:30.831Z,56.30
2018-08-07T07:13:30.872Z,56.11
2018-08-07T07:14:30.890Z,55.92
2018-08-07T07:15:30.926Z,55.24
2018-08-07T07:16:30.953Z,55.05
2018-08-07T07:17:31.003Z,55.34
2018-08-07T07:18:31.009Z,55.53
2018-08-07T07:19:31.050Z,55.07
2018-08-07T07:20:31.106Z,55.92
2018-08-07T07:21:31.091Z,54.57
2018-08-07T07:22:31.131Z,55.05
2018-08-07T07:23:31.186Z,55.73
2018-08-07T07:24:31.190Z,55.17
2018-08-07T07:25:31.217Z,55.17
2018-08-07T07:26:31.280Z,54.88
2018-08-07T07:27:31.274Z,54.01
2018-08-07T07:28:31.398Z,54.11
2018-08-07T07:29:31.335Z,54.23
2018-08-07T07:30:31.365Z,54.59
2018-08-07T07:31:31.975Z,54.98
2018-08-07T07:32:31.419Z,54.49
2018-08-07T07:33:31.452Z,54.30
2018-08-07T07:34:31.499Z,54.79
2018-08-07T07:35:31.524Z,55.30
2018-08-07T07:36:31.544Z,54.62
2018-08-07T07:37:31.578Z,54.81
2018-08-07T07:38:31.601Z,54.71
2018-08-07T07:39:31.630Z,55.20
2018-08-07T07:40:31.690Z,53.55
2018-08-07T07:41:31.693Z,52.03
2018-08-07T07:42:31.726Z,53.58
2018-08-07T07:43:31.757Z,53.67
2018-08-07T07:44:31.796Z,53.87
2018-08-07T07:45:31.815Z,53.67
2018-08-07T07:46:31.849Z,53.87
2018-08-07T07:47:31.872Z,54.06
2018-08-07T07:48:31.904Z,53.29
2018-08-07T07:49:31.947Z,51.28
2018-08-07T07:50:32.209Z,51.09
2018-08-07T07:51:32.098Z,52.73
2018-08-07T07:53:32.096Z,52.06
2018-08-07T07:54:32.078Z,51.18
2018-08-07T07:55:32.117Z,51.18
2018-08-07T07:56:32.136Z,51.16
2018-08-07T07:57:32.168Z,51.67
2018-08-07T07:58:32.208Z,51.16
2018-08-07T07:59:32.377Z,51.28
2018-08-07T08:00:32.596Z,51.09
2018-08-07T08:01:32.393Z,52.15
2018-08-07T08:02:32.384Z,51.18
2018-08-07T08:04:32.392Z,52.28
2018-08-07T08:05:32.467Z,51.28
2018-08-07T08:07:32.492Z,48.97
2018-08-07T08:08:32.521Z,49.85
2018-08-07T08:09:32.548Z,49.75
2018-08-07T08:10:32.564Z,49.46
2018-08-07T08:12:32.631Z,50.04
2018-08-07T08:13:53.671Z,49.56
2018-08-07T08:14:32.687Z,50.14
2018-08-07T08:15:32.727Z,49.95
2018-08-07T08:16:32.783Z,49.75
2018-08-07T08:17:32.777Z,50.07
2018-08-07T08:18:32.806Z,48.90
2018-08-07T08:19:32.832Z,49.10
2018-08-07T08:20:32.862Z,49.12
2018-08-07T08:21:32.897Z,49.10
2018-08-07T08:22:32.924Z,48.90
2018-08-07T08:23:32.950Z,49.10
2018-08-07T08:24:32.996Z,48.93
2018-08-07T08:25:33.011Z,49.02
2018-08-07T08:26:33.051Z,50.19
2018-08-07T08:27:33.079Z,49.87
2018-08-07T08:28:33.128Z,48.93
2018-08-07T08:29:33.271Z,48.64
2018-08-07T08:30:33.170Z,48.05
2018-08-07T08:31:33.220Z,47.49
2018-08-07T08:32:33.243Z,46.89
2018-08-07T08:33:33.272Z,47.86
2018-08-07T08:34:33.284Z,47.49
2018-08-07T08:35:33.371Z,46.72
2018-08-07T08:36:33.547Z,46.72
2018-08-07T08:37:33.385Z,43.92
2018-08-07T08:38:33.405Z,45.67
2018-08-07T08:39:33.436Z,46.45
2018-08-07T08:40:33.473Z,47.03
2018-08-07T08:41:33.503Z,46.72
2018-08-07T08:42:33.552Z,46.06
2018-08-07T08:43:33.557Z,45.75
2018-08-07T08:44:33.597Z,45.45
2018-08-07T08:45:33.617Z,46.25
2018-08-07T08:46:33.648Z,46.64
2018-08-07T08:47:33.682Z,47.11
2018-08-07T08:48:33.797Z,46.94
2018-08-07T08:49:33.740Z,47.32
2018-08-07T08:50:33.775Z,46.94
2018-08-07T08:51:33.868Z,46.06
2018-08-07T08:52:33.833Z,46.45
2018-08-07T08:53:36.504Z,46.74
2018-08-07T08:54:33.921Z,45.31
2018-08-07T08:55:33.925Z,45.98
2018-08-07T08:56:33.967Z,47.15
2018-08-07T08:57:33.989Z,46.25
2018-08-07T08:58:34.047Z,45.89
2018-08-07T08:59:34.047Z,45.31
2018-08-07T09:00:34.099Z,44.14
2018-08-07T09:01:34.111Z,44.33
2018-08-07T09:02:34.144Z,45.11
2018-08-07T09:03:34.192Z,44.92
2018-08-07T09:04:34.206Z,45.72
2018-08-07T09:05:34.229Z,43.65
2018-08-07T09:06:34.289Z,42.39
2018-08-07T09:07:34.309Z,43.48
2018-08-07T09:08:34.335Z,43.77
2018-08-07T09:09:34.363Z,43.67
2018-08-07T09:10:34.496Z,41.16
2018-08-07T09:11:34.475Z,42.53
2018-08-07T09:12:34.489Z,43.01
2018-08-07T09:13:34.482Z,43.70
2018-08-07T09:14:34.568Z,42.82
2018-08-07T09:15:34.583Z,42.91
2018-08-07T09:16:34.568Z,43.70
2018-08-07T09:17:34.617Z,44.57
2018-08-07T09:18:34.628Z,46.42
2018-08-07T09:19:34.714Z,46.03
2018-08-07T09:20:34.698Z,46.03
2018-08-07T09:21:34.718Z,45.06
2018-08-07T09:22:34.747Z,44.76
2018-08-07T09:23:34.779Z,44.76
2018-08-07T09:24:34.827Z,44.28
2018-08-07T09:25:34.950Z,42.41
2018-08-07T09:26:34.874Z,42.31
2018-08-07T09:27:34.901Z,42.99
2018-08-07T09:28:34.938Z,43.87
2018-08-07T09:29:34.974Z,43.89
2018-08-07T09:30:34.996Z,42.33
2018-08-07T09:31:35.034Z,42.04
2018-08-07T09:32:35.117Z,42.91
2018-08-07T09:33:35.115Z,42.45
2018-08-07T09:34:35.117Z,43.52
2018-08-07T09:35:35.158Z,42.74
2018-08-07T09:36:35.179Z,42.38
2018-08-07T09:37:35.253Z,42.86
2018-08-07T09:38:35.248Z,42.08
2018-08-07T09:40:35.361Z,40.73
2018-08-07T09:41:35.336Z,41.32
2018-08-07T09:42:35.376Z,42.59
2018-08-07T09:43:35.395Z,42.69
2018-08-07T09:44:35.606Z,42.32
2018-08-07T09:45:35.461Z,42.59
2018-08-07T09:46:35.539Z,42.61
2018-08-07T09:47:35.519Z,41.93
2018-08-07T09:48:35.552Z,38.92
2018-08-07T09:49:36.530Z,40.92
2018-08-07T09:50:35.615Z,39.67
2018-08-07T09:51:35.647Z,36.75
2018-08-07T09:52:35.680Z,34.33
2018-08-07T09:53:35.711Z,35.11
2018-08-07T09:54:35.752Z,37.55
2018-08-07T09:55:35.774Z,36.65
2018-08-07T09:57:35.838Z,37.85
2018-08-07T09:58:35.882Z,37.65
2018-08-07T09:59:35.900Z,37.27
2018-08-07T10:00:35.936Z,37.67
2018-08-07T10:01:35.973Z,37.16
2018-08-07T10:02:35.985Z,38.12
2018-08-07T10:03:36.025Z,38.12
2018-08-07T10:04:36.048Z,37.52
2018-08-07T10:05:36.204Z,38.40
2018-08-07T10:06:36.111Z,37.71
2018-08-07T10:07:36.154Z,37.93
2018-08-07T10:08:36.183Z,37.57
2018-08-07T10:09:36.236Z,37.29
2018-08-07T10:10:36.236Z,35.73
2018-08-07T10:11:36.295Z,35.03
2018-08-07T10:12:36.326Z,35.79
2018-08-07T10:13:36.329Z,34.74
2018-08-07T10:14:36.360Z,36.22
2018-08-07T10:15:36.411Z,34.28
2018-08-07T10:16:36.425Z,34.96
2018-08-07T10:17:36.457Z,34.96
2018-08-07T10:18:36.533Z,35.39
2018-08-07T10:19:36.546Z,33.44
2018-08-07T10:20:36.556Z,34.15
2018-08-07T10:21:36.589Z,34.66
2018-08-07T10:22:36.618Z,33.29
2018-08-07T10:23:36.670Z,33.02
2018-08-07T10:24:36.692Z,32.92
2018-08-07T10:25:36.706Z,29.90
2018-08-07T10:26:36.736Z,29.92
2018-08-07T10:27:36.812Z,30.31
2018-08-07T10:28:36.808Z,30.60
2018-08-07T10:29:36.839Z,30.91
2018-08-07T10:30:36.884Z,31.23
2018-08-07T10:31:36.910Z,30.15
2018-08-07T10:32:36.929Z,29.86
2018-08-07T10:33:36.964Z,30.27
2018-08-07T10:34:36.995Z,25.84
2018-08-07T10:35:37.034Z,28.70
2018-08-07T10:36:37.081Z,26.17
2018-08-07T10:37:37.094Z,28.16
2018-08-07T10:38:37.136Z,27.96
2018-08-07T10:39:37.151Z,27.89
2018-08-07T10:40:37.270Z,27.09
2018-08-07T10:41:37.215Z,26.80
2018-08-07T10:42:37.250Z,26.71
2018-08-07T10:43:37.326Z,25.35
2018-08-07T10:44:37.323Z,25.05
2018-08-07T10:45:37.346Z,23.18
2018-08-07T10:46:37.386Z,24.67
2018-08-07T10:47:37.570Z,21.51
2018-08-07T10:48:37.445Z,21.63
2018-08-07T10:49:37.503Z,21.74
2018-08-07T10:50:37.510Z,23.89
2018-08-07T10:51:37.544Z,23.78
2018-08-07T10:52:37.581Z,24.87
2018-08-07T10:53:37.613Z,24.67
2018-08-07T10:54:37.651Z,24.88
2018-08-07T10:55:37.685Z,23.58
2018-08-07T10:56:37.792Z,24.48
2018-08-07T10:57:37.761Z,20.70
2018-08-07T10:58:37.787Z,21.22
2018-08-07T10:59:37.817Z,22.03
2018-08-07T11:00:37.848Z,20.43
2018-08-07T11:01:37.880Z,19.62
2018-08-07T11:02:37.922Z,19.84
2018-08-07T11:03:37.954Z,21.35
2018-08-07T11:04:37.983Z,22.36
2018-08-07T11:05:38.040Z,19.18
2018-08-07T11:06:38.053Z,20.18
2018-08-07T11:07:38.109Z,21.57
2018-08-07T11:08:38.117Z,21.38
2018-08-07T11:09:38.152Z,22.55
2018-08-07T11:10:38.205Z,23.03
2018-08-07T11:11:38.224Z,23.43
2018-08-07T11:12:38.281Z,24.20
2018-08-07T11:13:38.340Z,23.81
2018-08-07T11:14:38.327Z,23.04
2018-08-07T11:15:38.361Z,23.74
2018-08-07T11:16:38.401Z,24.72
2018-08-07T11:17:38.454Z,23.25
2018-08-07T11:18:38.468Z,21.98
2018-08-07T11:19:38.508Z,18.49
2018-08-07T11:20:38.545Z,18.79
2018-08-07T11:21:38.590Z,21.97
2018-08-07T11:22:38.619Z,21.57
2018-08-07T11:23:38.651Z,21.86
2018-08-07T11:24:38.705Z,21.27
2018-08-07T11:25:38.723Z,22.28
2018-08-07T11:26:38.767Z,17.58
2018-08-07T11:27:38.809Z,19.41
2018-08-07T11:28:38.835Z,19.60
2018-08-07T11:29:38.887Z,17.52
2018-08-07T11:30:38.922Z,16.52
2018-08-07T11:31:38.957Z,19.93
2018-08-07T11:32:39.011Z,16.61
2018-08-07T11:33:39.034Z,19.40
2018-08-07T11:34:39.073Z,21.68
2018-08-07T11:35:39.115Z,17.32
2018-08-07T11:36:39.161Z,18.73
2018-08-07T11:37:39.201Z,16.42
2018-08-07T11:38:39.243Z,18.73
2018-08-07T11:39:39.268Z,19.21
2018-08-07T11:40:39.313Z,17.69
2018-08-07T11:41:39.363Z,21.36
2018-08-07T11:42:39.393Z,23.10
2018-08-07T11:43:39.440Z,20.41
2018-08-07T11:44:39.469Z,25.61
2018-08-07T11:45:39.514Z,28.21
2018-08-07T11:46:39.544Z,28.68
2018-08-07T11:47:39.581Z,29.63
2018-08-07T11:48:39.619Z,30.98
2018-08-07T11:49:39.654Z,31.95
2018-08-07T11:50:39.732Z,27.74
2018-08-07T11:51:39.734Z,32.43
2018-08-07T11:52:39.757Z,32.61
2018-08-07T11:53:39.792Z,34.15
2018-08-07T11:54:39.830Z,34.92
2018-08-07T11:55:39.871Z,30.02
2018-08-07T11:56:39.899Z,34.52
2018-08-07T11:57:39.932Z,35.21
2018-08-07T11:58:39.984Z,35.96
2018-08-07T11:59:40.104Z,36.82
2018-08-07T12:00:40.031Z,37.41
2018-08-07T12:01:40.085Z,37.59
2018-08-07T12:02:40.118Z,38.16
2018-08-07T12:03:40.160Z,37.27
2018-08-07T12:04:40.176Z,39.23
2018-08-07T12:05:40.210Z,40.09
2018-08-07T12:06:40.239Z,40.47
2018-08-07T12:07:40.270Z,40.95
2018-08-07T12:08:40.320Z,40.74
2018-08-07T12:09:40.339Z,40.94
2018-08-07T12:10:40.374Z,36.85
2018-08-07T12:11:40.406Z,34.42
2018-08-07T12:12:40.454Z,36.10
2018-08-07T12:13:40.467Z,35.69
2018-08-07T12:14:40.511Z,30.07
2018-08-07T12:15:40.534Z,28.51
2018-08-07T12:16:40.576Z,34.94
2018-08-07T12:17:40.602Z,29.35
2018-08-07T12:18:40.632Z,30.25
2018-08-07T12:19:40.670Z,35.03
2018-08-07T12:20:40.706Z,36.94
2018-08-07T12:21:40.793Z,36.07
2018-08-07T12:22:40.812Z,34.52
2018-08-07T12:23:40.795Z,29.25
2018-08-07T12:24:40.834Z,28.39
2018-08-07T12:25:40.879Z,33.07
2018-08-07T12:26:40.896Z,35.89
2018-08-07T12:27:40.950Z,35.09
2018-08-07T12:28:40.981Z,37.52
2018-08-07T12:29:40.990Z,30.41
2018-08-07T12:30:41.028Z,36.36
2018-08-07T12:31:41.061Z,36.83
2018-08-07T12:32:41.100Z,36.83
2018-08-07T12:33:41.128Z,37.40
2018-08-07T12:34:41.156Z,29.93
2018-08-07T12:35:41.224Z,28.47
2018-08-07T12:36:41.227Z,26.53
2018-08-07T12:37:41.265Z,27.70
2018-08-07T12:38:41.297Z,26.43
2018-08-07T12:39:41.328Z,26.64
2018-08-07T12:40:41.365Z,26.44
2018-08-07T12:41:41.397Z,32.39
2018-08-07T12:42:41.416Z,28.49
2018-08-07T12:43:41.448Z,27.01
2018-08-07T12:44:41.488Z,27.61
2018-08-07T12:45:41.531Z,27.90
2018-08-07T12:46:41.635Z,28.19
2018-08-07T12:47:41.585Z,29.84
2018-08-07T12:48:41.621Z,27.70
2018-08-07T12:49:41.646Z,26.72
2018-08-07T12:50:41.677Z,28.19
2018-08-07T12:51:41.714Z,33.54
2018-08-07T12:52:41.743Z,33.92
2018-08-07T12:53:41.790Z,31.96
2018-08-07T12:54:41.811Z,33.04
2018-08-07T12:55:41.869Z,35.66
2018-08-07T12:56:41.874Z,37.40
2018-08-07T12:57:41.914Z,38.09
2018-08-07T12:58:41.934Z,38.06